createdAt,value
2022-07-31T09:23:53.500Z,49.33
2022-07-31T09:24:53.617Z,49.73
2022-07-31T09:25:53.731Z,48.93
2022-07-31T09:26:53.426Z,49.43
2022-07-31T09:27:53.437Z,49.63
2022-07-31T09:29:01.080Z,49.93
2022-07-31T09:29:53.370Z,51.42
2022-07-31T09:30:55.519Z,49.63
2022-07-31T09:31:53.387Z,49.13
2022-07-31T09:32:53.439Z,49.93
2022-07-31T09:33:53.391Z,49.63
2022-07-31T09:34:59.948Z,50.00
2022-07-31T09:35:53.345Z,50.00
2022-07-31T09:36:53.308Z,49.60
2022-07-31T09:37:53.311Z,50.78
2022-07-31T09:38:53.577Z,49.28
2022-07-31T09:39:59.529Z,49.08
2022-07-31T09:40:56.928Z,48.98
2022-07-31T09:41:56.475Z,48.88
2022-07-31T09:42:55.637Z,49.08
2022-07-31T09:43:53.202Z,48.79
2022-07-31T09:44:59.493Z,48.88
2022-07-31T09:45:53.195Z,48.58
2022-07-31T09:46:53.188Z,48.56
2022-07-31T09:47:53.178Z,48.49
2022-07-31T09:48:56.689Z,48.96
2022-07-31T09:50:00.930Z,48.36
2022-07-31T09:50:55.297Z,48.26
2022-07-31T09:51:53.092Z,48.86
2022-07-31T09:52:55.602Z,48.24
2022-07-31T09:53:54.088Z,48.24
2022-07-31T09:55:01.642Z,47.14
2022-07-31T09:55:53.430Z,46.42
2022-07-31T09:56:59.442Z,46.62
2022-07-31T09:57:54.218Z,46.53
2022-07-31T09:58:53.006Z,46.42
2022-07-31T10:00:00.380Z,46.53
2022-07-31T10:00:54.193Z,46.72
2022-07-31T10:01:53.912Z,46.92
2022-07-31T10:02:52.995Z,46.92
2022-07-31T10:03:54.492Z,46.53
2022-07-31T10:04:59.284Z,46.62
2022-07-31T10:05:54.195Z,46.92
2022-07-31T10:06:55.515Z,46.62
2022-07-31T10:07:52.911Z,46.92
2022-07-31T10:08:53.201Z,47.02
2022-07-31T10:10:00.150Z,47.32
2022-07-31T10:10:52.859Z,47.10
2022-07-31T10:11:53.821Z,47.00
2022-07-31T10:12:53.094Z,46.80
2022-07-31T10:13:53.094Z,46.50
2022-07-31T10:14:52.807Z,46.31
2022-07-31T10:15:59.126Z,46.70
2022-07-31T10:16:53.053Z,47.89
2022-07-31T10:17:53.877Z,46.90
2022-07-31T10:18:52.868Z,47.00
2022-07-31T10:19:52.734Z,47.20
2022-07-31T10:20:53.709Z,46.08
2022-07-31T10:21:59.389Z,46.48
2022-07-31T10:22:52.986Z,46.88
2022-07-31T10:23:54.090Z,46.38
2022-07-31T10:24:53.000Z,46.19
2022-07-31T10:25:54.055Z,45.79
2022-07-31T10:27:03.893Z,46.38
2022-07-31T10:28:00.470Z,46.58
2022-07-31T10:28:52.644Z,46.48
2022-07-31T10:29:52.893Z,46.68
2022-07-31T10:30:52.633Z,46.66
2022-07-31T10:31:52.921Z,46.36
2022-07-31T10:32:52.585Z,46.06
2022-07-31T10:33:59.889Z,45.94
2022-07-31T10:34:53.507Z,45.64
2022-07-31T10:35:55.442Z,45.45
2022-07-31T10:36:53.774Z,45.74
2022-07-31T10:37:52.553Z,45.54
2022-07-31T10:38:52.868Z,45.64
2022-07-31T10:39:59.758Z,45.34
2022-07-31T10:40:52.483Z,44.95
2022-07-31T10:41:52.520Z,45.45
2022-07-31T10:42:53.495Z,45.15
2022-07-31T10:43:52.500Z,45.74
2022-07-31T10:44:53.428Z,45.34
2022-07-31T10:45:58.829Z,44.63
2022-07-31T10:46:52.422Z,44.23
2022-07-31T10:47:52.437Z,44.04
2022-07-31T10:48:52.452Z,43.44
2022-07-31T10:49:52.379Z,43.91
2022-07-31T10:50:52.347Z,43.62
2022-07-31T10:51:59.687Z,43.32
2022-07-31T10:52:55.038Z,42.65
2022-07-31T10:53:55.346Z,42.94
2022-07-31T10:54:52.443Z,43.84
2022-07-31T10:55:52.656Z,44.13
2022-07-31T10:56:52.276Z,43.74
2022-07-31T10:57:58.726Z,44.13
2022-07-31T10:58:52.250Z,43.74
2022-07-31T10:59:53.557Z,43.84
2022-07-31T11:00:52.549Z,43.54
2022-07-31T11:01:53.715Z,43.85
2022-07-31T11:02:52.238Z,43.85
2022-07-31T11:03:58.668Z,43.84
2022-07-31T11:04:55.153Z,43.93
2022-07-31T11:06:02.085Z,43.54
2022-07-31T11:06:55.191Z,43.93
2022-07-31T11:07:52.301Z,43.34
2022-07-31T11:08:58.438Z,43.24
2022-07-31T11:09:52.136Z,43.66
2022-07-31T11:10:52.128Z,43.76
2022-07-31T11:11:52.099Z,44.55
2022-07-31T11:12:52.098Z,44.15
2022-07-31T11:13:52.049Z,44.06
2022-07-31T11:14:58.406Z,44.15
2022-07-31T11:15:52.069Z,43.56
2022-07-31T11:16:52.066Z,44.06
2022-07-31T11:18:20.959Z,44.45
2022-07-31T11:18:53.004Z,44.15
2022-07-31T11:19:59.268Z,44.15
2022-07-31T11:20:51.998Z,43.76
2022-07-31T11:21:52.103Z,43.76
2022-07-31T11:22:52.055Z,44.13
2022-07-31T11:23:55.934Z,43.44
2022-07-31T11:24:59.712Z,43.64
2022-07-31T11:25:51.966Z,43.22
2022-07-31T11:26:51.903Z,42.23
2022-07-31T11:27:51.953Z,42.52
2022-07-31T11:28:51.880Z,43.42
2022-07-31T11:30:00.249Z,42.50
2022-07-31T11:30:59.643Z,42.21
2022-07-31T11:31:51.868Z,41.93
2022-07-31T11:32:51.836Z,42.33
2022-07-31T11:33:51.859Z,42.63
2022-07-31T11:34:51.805Z,42.92
2022-07-31T11:35:51.823Z,43.04
2022-07-31T11:36:58.096Z,42.94
2022-07-31T11:37:57.732Z,42.65
2022-07-31T11:38:53.264Z,43.04
2022-07-31T11:39:52.651Z,43.32
2022-07-31T11:40:51.711Z,43.44
2022-07-31T11:41:58.939Z,43.74
2022-07-31T11:43:23.087Z,43.84
2022-07-31T11:43:52.705Z,43.85
2022-07-31T11:44:51.757Z,43.96
2022-07-31T11:45:51.700Z,44.15
2022-07-31T11:46:58.173Z,44.23
2022-07-31T11:48:11.202Z,43.34
2022-07-31T11:48:53.173Z,42.85
2022-07-31T11:49:51.628Z,42.63
2022-07-31T11:50:51.619Z,42.13
2022-07-31T11:51:51.622Z,42.13
2022-07-31T11:52:57.876Z,42.41
2022-07-31T11:53:56.796Z,42.21
2022-07-31T11:54:53.064Z,41.99
2022-07-31T11:55:52.483Z,41.39
2022-07-31T11:56:51.641Z,41.52
2022-07-31T11:57:52.949Z,42.11
2022-07-31T11:58:57.792Z,41.60
2022-07-31T11:59:51.514Z,41.60
2022-07-31T12:00:52.264Z,41.47
2022-07-31T12:01:51.478Z,41.57
2022-07-31T12:02:52.137Z,40.86
2022-07-31T12:03:51.464Z,40.07
2022-07-31T12:04:58.669Z,40.34
2022-07-31T12:05:52.450Z,40.64
2022-07-31T12:06:52.339Z,40.45
2022-07-31T12:07:51.427Z,40.25
2022-07-31T12:08:51.366Z,39.85
2022-07-31T12:10:00.822Z,39.75
2022-07-31T12:10:59.141Z,38.88
2022-07-31T12:11:51.349Z,38.68
2022-07-31T12:12:51.450Z,39.50
2022-07-31T12:13:51.310Z,39.89
2022-07-31T12:14:51.349Z,39.87
2022-07-31T12:15:57.645Z,39.67
2022-07-31T12:16:51.274Z,39.75
2022-07-31T12:17:51.269Z,39.85
2022-07-31T12:18:51.357Z,39.56
2022-07-31T12:19:53.816Z,40.05
2022-07-31T12:20:59.978Z,39.95
2022-07-31T12:21:51.261Z,40.55
2022-07-31T12:22:51.222Z,40.74
2022-07-31T12:23:51.195Z,40.55
2022-07-31T12:24:52.182Z,40.64
2022-07-31T12:25:51.226Z,40.47
2022-07-31T12:26:58.493Z,40.98
2022-07-31T12:27:51.191Z,41.28
2022-07-31T12:28:51.145Z,41.20
2022-07-31T12:29:51.120Z,41.60
2022-07-31T12:30:51.143Z,42.19
2022-07-31T12:31:51.111Z,42.50
2022-07-31T12:32:57.393Z,43.20
2022-07-31T12:33:51.104Z,42.90
2022-07-31T12:34:51.072Z,42.11
2022-07-31T12:35:56.439Z,42.23
2022-07-31T12:36:52.615Z,43.12
2022-07-31T12:37:51.033Z,43.02
2022-07-31T12:38:58.396Z,44.11
2022-07-31T12:40:00.171Z,43.32
2022-07-31T12:40:52.539Z,43.42
2022-07-31T12:41:50.983Z,44.01
2022-07-31T12:42:50.994Z,43.82
2022-07-31T12:43:52.790Z,44.41
2022-07-31T12:44:57.381Z,43.82
2022-07-31T12:45:51.028Z,44.31
2022-07-31T12:46:52.147Z,43.62
2022-07-31T12:47:52.231Z,43.71
2022-07-31T12:48:58.216Z,43.52
2022-07-31T12:49:58.353Z,44.01
2022-07-31T12:50:52.074Z,43.42
2022-07-31T12:51:50.919Z,43.71
2022-07-31T12:52:50.847Z,43.32
2022-07-31T12:53:51.111Z,43.20
2022-07-31T12:54:57.140Z,43.20
2022-07-31T12:55:50.826Z,43.00
2022-07-31T12:56:50.803Z,42.90
2022-07-31T12:57:52.199Z,43.20
2022-07-31T12:58:50.769Z,42.78
2022-07-31T12:59:57.364Z,43.08
2022-07-31T13:00:51.063Z,42.58
2022-07-31T13:01:51.715Z,42.27
2022-07-31T13:02:50.744Z,42.36
2022-07-31T13:03:51.769Z,42.96
2022-07-31T13:04:50.705Z,42.66
2022-07-31T13:05:58.209Z,43.46
2022-07-31T13:06:50.925Z,42.54
2022-07-31T13:07:51.665Z,42.35
2022-07-31T13:08:50.636Z,42.36
2022-07-31T13:10:19.003Z,42.25
2022-07-31T13:10:51.644Z,42.35
2022-07-31T13:11:58.201Z,41.97
2022-07-31T13:12:51.619Z,41.57
2022-07-31T13:13:50.617Z,42.17
2022-07-31T13:14:50.951Z,42.76
2022-07-31T13:15:50.551Z,41.97
2022-07-31T13:16:50.565Z,41.85
2022-07-31T13:17:57.825Z,42.14
2022-07-31T13:18:50.500Z,41.55
2022-07-31T13:19:51.879Z,40.96
2022-07-31T13:20:51.447Z,40.76
2022-07-31T13:21:51.924Z,40.86
2022-07-31T13:22:58.578Z,40.25
2022-07-31T13:23:54.380Z,39.58
2022-07-31T13:24:52.021Z,39.58
2022-07-31T13:25:51.611Z,40.07
2022-07-31T13:26:51.678Z,40.07
2022-07-31T13:27:50.435Z,40.56
2022-07-31T13:28:57.708Z,39.97
2022-07-31T13:29:50.762Z,41.36
2022-07-31T13:30:55.019Z,40.34
2022-07-31T13:31:50.702Z,39.95
2022-07-31T13:32:50.507Z,39.48
2022-07-31T13:33:51.314Z,38.78
2022-07-31T13:35:19.503Z,39.28
2022-07-31T13:35:52.248Z,39.58
2022-07-31T13:36:50.615Z,40.26
2022-07-31T13:37:50.621Z,39.37
2022-07-31T13:38:50.531Z,38.78
2022-07-31T13:39:56.542Z,39.08
2022-07-31T13:40:50.632Z,39.97
2022-07-31T13:41:51.349Z,38.98
2022-07-31T13:42:50.262Z,39.56
2022-07-31T13:44:00.335Z,38.67
2022-07-31T13:44:59.752Z,37.85
2022-07-31T13:45:50.215Z,37.66
2022-07-31T13:46:50.207Z,37.46
2022-07-31T13:47:52.893Z,37.46
2022-07-31T13:48:50.960Z,38.94
2022-07-31T13:49:50.161Z,37.36
2022-07-31T13:50:56.445Z,38.25
2022-07-31T13:51:50.117Z,37.46
2022-07-31T13:52:50.166Z,37.16
2022-07-31T13:53:50.504Z,37.26
2022-07-31T13:54:50.934Z,37.56
2022-07-31T13:55:57.381Z,37.16
2022-07-31T13:56:50.054Z,37.76
2022-07-31T13:57:51.332Z,37.85
2022-07-31T13:58:50.030Z,38.06
2022-07-31T13:59:50.088Z,38.33
2022-07-31T14:00:56.303Z,37.94
2022-07-31T14:02:04.493Z,37.62
2022-07-31T14:02:51.588Z,37.54
2022-07-31T14:03:50.045Z,38.04
2022-07-31T14:04:49.973Z,38.35
2022-07-31T14:05:55.326Z,38.06
2022-07-31T14:06:56.529Z,38.45
2022-07-31T14:07:51.810Z,38.37
2022-07-31T14:08:50.795Z,38.04
2022-07-31T14:09:55.352Z,35.79
2022-07-31T14:10:54.244Z,35.18
2022-07-31T14:11:51.977Z,36.00
2022-07-31T14:12:56.516Z,36.83
2022-07-31T14:13:56.148Z,37.34
2022-07-31T14:14:51.082Z,37.94
2022-07-31T14:15:50.103Z,38.55
2022-07-31T14:16:50.904Z,38.65
2022-07-31T14:17:49.822Z,38.45
2022-07-31T14:18:59.949Z,39.34
2022-07-31T14:19:50.589Z,38.06
2022-07-31T14:20:49.803Z,36.61
2022-07-31T14:21:56.099Z,36.93
2022-07-31T14:22:52.215Z,36.85
2022-07-31T14:23:49.919Z,35.89
2022-07-31T14:24:56.211Z,34.74
2022-07-31T14:25:50.399Z,32.71
2022-07-31T14:26:49.815Z,31.97
2022-07-31T14:27:52.184Z,29.87
2022-07-31T14:28:50.987Z,29.83
2022-07-31T14:29:57.009Z,28.04
2022-07-31T14:30:50.883Z,26.66
2022-07-31T14:31:50.039Z,26.63
2022-07-31T14:32:49.729Z,26.53
2022-07-31T14:33:50.788Z,26.51
2022-07-31T14:34:49.634Z,25.42
2022-07-31T14:35:56.238Z,25.60
2022-07-31T14:36:51.696Z,25.19
2022-07-31T14:37:49.832Z,24.32
2022-07-31T14:38:50.533Z,24.91
2022-07-31T14:39:50.621Z,24.80
2022-07-31T14:40:56.808Z,24.12
2022-07-31T14:41:49.551Z,24.23
2022-07-31T14:43:10.873Z,25.85
2022-07-31T14:43:49.711Z,26.13
2022-07-31T14:44:49.557Z,25.82
2022-07-31T14:45:55.804Z,25.35
2022-07-31T14:46:50.821Z,25.03
2022-07-31T14:47:49.463Z,25.13
2022-07-31T14:48:49.543Z,23.94
2022-07-31T14:50:06.969Z,24.00
2022-07-31T14:50:50.919Z,23.11
2022-07-31T14:51:56.415Z,23.00
2022-07-31T14:52:49.375Z,22.80
2022-07-31T14:53:49.462Z,22.30
2022-07-31T14:54:50.328Z,22.38
2022-07-31T14:55:50.297Z,21.59
2022-07-31T14:57:02.941Z,21.92
2022-07-31T14:57:50.870Z,21.62
2022-07-31T14:58:57.224Z,22.40
2022-07-31T14:59:50.877Z,21.61
2022-07-31T15:00:50.293Z,21.68
2022-07-31T15:01:50.257Z,20.98
2022-07-31T15:02:56.583Z,20.87
2022-07-31T15:03:49.348Z,20.41
2022-07-31T15:04:49.280Z,20.71
2022-07-31T15:06:41.019Z,21.31
2022-07-31T15:07:07.170Z,21.51
2022-07-31T15:07:56.527Z,21.80
2022-07-31T15:08:49.225Z,22.17
2022-07-31T15:09:49.774Z,21.11
2022-07-31T15:10:49.209Z,21.11
2022-07-31T15:12:00.575Z,20.93
2022-07-31T15:12:50.675Z,21.22
2022-07-31T15:13:55.468Z,20.64
2022-07-31T15:14:49.483Z,21.24
2022-07-31T15:15:49.541Z,21.66
2022-07-31T15:16:49.811Z,21.75
2022-07-31T15:17:49.119Z,22.76
2022-07-31T15:18:55.430Z,23.86
2022-07-31T15:19:49.104Z,23.88
2022-07-31T15:20:49.094Z,24.07
2022-07-31T15:22:11.156Z,24.63
2022-07-31T15:22:50.111Z,23.43
2022-07-31T15:23:57.352Z,21.96
2022-07-31T15:24:50.445Z,21.55
2022-07-31T15:25:49.046Z,21.95
2022-07-31T15:26:49.956Z,22.35
2022-07-31T15:27:48.999Z,22.47
2022-07-31T15:28:55.343Z,22.36
2022-07-31T15:30:03.612Z,22.76
2022-07-31T15:30:51.852Z,22.27
2022-07-31T15:31:49.504Z,22.56
2022-07-31T15:32:49.801Z,22.86
2022-07-31T15:33:49.017Z,22.58
2022-07-31T15:34:55.254Z,22.88
2022-07-31T15:35:49.197Z,23.07
2022-07-31T15:36:48.917Z,22.56
2022-07-31T15:37:49.843Z,22.37
2022-07-31T15:38:49.802Z,22.17
2022-07-31T15:40:01.416Z,22.44
2022-07-31T15:40:57.603Z,21.75
2022-07-31T15:41:49.884Z,21.75
2022-07-31T15:42:48.819Z,21.77
2022-07-31T15:43:49.032Z,22.88
2022-07-31T15:44:48.829Z,23.78
2022-07-31T15:45:50.297Z,24.11
2022-07-31T15:46:55.058Z,24.71
2022-07-31T15:47:48.797Z,25.62
2022-07-31T15:48:48.845Z,25.35
2022-07-31T15:49:48.822Z,26.56
2022-07-31T15:50:48.767Z,27.67
2022-07-31T15:51:48.729Z,28.08
2022-07-31T15:52:55.539Z,28.49
2022-07-31T15:53:49.009Z,28.78
2022-07-31T15:54:51.825Z,28.30
2022-07-31T15:55:48.664Z,28.79
2022-07-31T15:56:49.044Z,29.00
2022-07-31T15:57:56.829Z,29.31
2022-07-31T15:58:52.154Z,29.93
2022-07-31T15:59:50.415Z,30.34
2022-07-31T16:00:48.706Z,30.54
2022-07-31T16:01:48.600Z,30.73
2022-07-31T16:02:49.783Z,30.63
2022-07-31T16:03:55.319Z,31.03
2022-07-31T16:04:52.596Z,30.93
2022-07-31T16:05:55.799Z,30.82
2022-07-31T16:06:50.641Z,30.52
2022-07-31T16:08:31.994Z,30.63
2022-07-31T16:08:50.701Z,30.93
2022-07-31T16:10:02.565Z,30.93
2022-07-31T16:10:54.090Z,31.23
2022-07-31T16:12:03.993Z,31.14
2022-07-31T16:12:50.754Z,31.44
2022-07-31T16:13:48.596Z,31.44
2022-07-31T16:14:55.121Z,31.65
2022-07-31T16:15:48.506Z,31.95
2022-07-31T16:16:51.613Z,31.56
2022-07-31T16:17:55.629Z,31.85
2022-07-31T16:18:48.495Z,31.86
2022-07-31T16:19:50.384Z,32.06
2022-07-31T16:20:56.914Z,31.86
2022-07-31T16:21:48.440Z,32.56
2022-07-31T16:22:51.302Z,31.86
2022-07-31T16:23:51.410Z,31.96
2022-07-31T16:24:48.335Z,32.06
2022-07-31T16:25:48.342Z,31.96
2022-07-31T16:26:55.011Z,31.86
2022-07-31T16:27:54.824Z,32.06
2022-07-31T16:28:53.738Z,32.06
2022-07-31T16:29:59.627Z,31.86
2022-07-31T16:30:49.774Z,32.18
2022-07-31T16:31:49.997Z,31.78
2022-07-31T16:32:55.745Z,32.39
2022-07-31T16:33:50.672Z,32.49
2022-07-31T16:34:52.708Z,31.79
2022-07-31T16:35:49.693Z,32.29
2022-07-31T16:36:48.737Z,32.39
2022-07-31T16:37:51.139Z,32.49
2022-07-31T16:39:17.661Z,32.37
2022-07-31T16:39:49.419Z,32.67
2022-07-31T16:40:53.088Z,32.57
2022-07-31T16:41:54.753Z,32.57
2022-07-31T16:42:49.600Z,32.67
2022-07-31T16:43:51.782Z,32.87
2022-07-31T16:44:54.382Z,32.97
2022-07-31T16:45:48.096Z,33.06
2022-07-31T16:46:52.810Z,33.26
2022-07-31T16:47:51.491Z,32.87
2022-07-31T16:48:48.068Z,32.98
2022-07-31T16:49:48.131Z,33.28
2022-07-31T16:50:55.100Z,33.28
2022-07-31T16:51:48.025Z,33.37
2022-07-31T16:52:52.670Z,33.47
2022-07-31T16:54:13.590Z,33.69
2022-07-31T16:54:48.933Z,33.79
2022-07-31T16:56:01.435Z,33.79
2022-07-31T16:56:49.432Z,33.59
2022-07-31T16:57:47.983Z,33.28
2022-07-31T16:58:52.607Z,33.18
2022-07-31T16:59:57.218Z,33.06
2022-07-31T17:00:55.856Z,33.36
2022-07-31T17:01:53.969Z,32.06
2022-07-31T17:02:49.805Z,32.35
2022-07-31T17:04:00.402Z,32.16
2022-07-31T17:04:53.923Z,32.16
2022-07-31T17:05:48.333Z,32.35
2022-07-31T17:06:54.425Z,32.26
2022-07-31T17:07:47.860Z,31.59
2022-07-31T17:08:48.602Z,32.18
2022-07-31T17:09:47.801Z,32.09
2022-07-31T17:10:52.501Z,31.99
2022-07-31T17:11:49.239Z,32.19
2022-07-31T17:12:57.463Z,32.40
2022-07-31T17:13:47.703Z,32.49
2022-07-31T17:14:47.752Z,32.49
2022-07-31T17:15:47.772Z,32.68
2022-07-31T17:16:48.852Z,32.29
2022-07-31T17:17:51.602Z,32.28
2022-07-31T17:18:55.008Z,31.48
2022-07-31T17:19:47.750Z,31.88
2022-07-31T17:20:55.931Z,32.07
2022-07-31T17:21:47.672Z,32.18
2022-07-31T17:22:54.130Z,31.98
2022-07-31T17:23:55.392Z,32.77
2022-07-31T17:24:47.587Z,32.18
2022-07-31T17:25:47.575Z,31.99
2022-07-31T17:26:47.545Z,32.60
2022-07-31T17:27:47.634Z,32.81
2022-07-31T17:28:47.808Z,33.21
2022-07-31T17:29:54.770Z,33.31
2022-07-31T17:30:47.550Z,33.42
2022-07-31T17:31:48.158Z,33.72
2022-07-31T17:32:54.692Z,33.82
2022-07-31T17:33:58.858Z,33.62
2022-07-31T17:34:49.233Z,33.62
2022-07-31T17:35:54.288Z,33.62
2022-07-31T17:36:47.450Z,33.13
2022-07-31T17:37:47.887Z,33.03
2022-07-31T17:38:47.406Z,33.52
2022-07-31T17:39:47.991Z,33.23
2022-07-31T17:40:47.709Z,33.33
2022-07-31T17:41:53.774Z,32.73
2022-07-31T17:42:47.398Z,32.73
2022-07-31T17:43:50.330Z,33.03
2022-07-31T17:44:49.822Z,32.93
2022-07-31T17:45:59.246Z,32.93
2022-07-31T17:46:50.410Z,33.34
2022-07-31T17:48:03.466Z,33.44
2022-07-31T17:48:49.433Z,33.54
2022-07-31T17:49:47.724Z,33.44
2022-07-31T17:50:50.249Z,33.84
2022-07-31T17:51:57.557Z,33.73
2022-07-31T17:52:48.800Z,33.73
2022-07-31T17:53:55.099Z,33.94
2022-07-31T17:54:49.015Z,33.73
2022-07-31T17:55:47.248Z,33.94
2022-07-31T17:56:47.232Z,34.03
2022-07-31T17:57:47.169Z,33.94
2022-07-31T17:58:53.454Z,33.84
2022-07-31T17:59:49.489Z,34.05
2022-07-31T18:00:47.126Z,33.94
2022-07-31T18:01:51.805Z,34.25
2022-07-31T18:02:50.081Z,34.25
2022-07-31T18:03:53.504Z,34.15
2022-07-31T18:04:47.116Z,34.05
2022-07-31T18:05:47.369Z,34.25
2022-07-31T18:06:50.271Z,34.15
2022-07-31T18:07:51.789Z,34.34
2022-07-31T18:08:47.046Z,34.34
2022-07-31T18:09:54.450Z,34.15
2022-07-31T18:10:54.359Z,34.55
2022-07-31T18:11:48.547Z,34.55
2022-07-31T18:12:57.994Z,34.64
2022-07-31T18:13:51.804Z,34.64
2022-07-31T18:14:46.951Z,34.84
2022-07-31T18:15:54.212Z,34.74
2022-07-31T18:16:47.374Z,35.44
2022-07-31T18:17:46.948Z,34.45
2022-07-31T18:18:48.580Z,34.56
2022-07-31T18:19:47.128Z,34.46
2022-07-31T18:20:46.949Z,34.86
2022-07-31T18:21:53.163Z,34.36
2022-07-31T18:22:48.696Z,34.17
2022-07-31T18:23:47.477Z,34.06
2022-07-31T18:24:47.001Z,34.66
2022-07-31T18:25:46.859Z,34.46
2022-07-31T18:26:53.111Z,34.36
2022-07-31T18:27:47.806Z,34.76
2022-07-31T18:28:47.157Z,34.68
2022-07-31T18:29:56.338Z,34.88
2022-07-31T18:30:48.281Z,34.97
2022-07-31T18:31:46.757Z,34.88
2022-07-31T18:32:53.034Z,35.17
2022-07-31T18:33:46.885Z,35.17
2022-07-31T18:34:46.799Z,34.97
2022-07-31T18:35:47.001Z,34.97
2022-07-31T18:36:48.652Z,34.78
2022-07-31T18:37:46.744Z,34.97
2022-07-31T18:38:53.029Z,35.17
2022-07-31T18:39:49.039Z,35.17
2022-07-31T18:40:46.685Z,35.19
2022-07-31T18:41:48.939Z,35.29
2022-07-31T18:42:46.628Z,35.49
2022-07-31T18:43:53.178Z,35.39
2022-07-31T18:44:46.845Z,35.09
2022-07-31T18:45:46.617Z,35.29
2022-07-31T18:46:46.562Z,35.49
2022-07-31T18:47:47.622Z,35.09
2022-07-31T18:48:46.633Z,35.39
2022-07-31T18:50:58.699Z,35.29
2022-07-31T18:50:59.545Z,35.39
2022-07-31T18:51:48.346Z,35.58
2022-07-31T18:52:46.564Z,35.39
2022-07-31T18:53:47.456Z,35.78
2022-07-31T18:54:46.486Z,35.69
2022-07-31T18:55:52.837Z,35.31
2022-07-31T18:56:47.685Z,35.71
2022-07-31T18:57:46.433Z,35.60
2022-07-31T18:58:46.473Z,35.60
2022-07-31T18:59:46.404Z,35.80
2022-07-31T19:00:55.125Z,35.71
2022-07-31T19:01:46.483Z,35.60
2022-07-31T19:02:46.420Z,36.10
2022-07-31T19:03:46.495Z,35.71
2022-07-31T19:04:46.365Z,35.90
2022-07-31T19:05:52.660Z,35.90
2022-07-31T19:06:46.385Z,35.90
2022-07-31T19:07:46.385Z,36.00
2022-07-31T19:08:46.374Z,35.80
2022-07-31T19:09:46.671Z,36.00
2022-07-31T19:10:46.315Z,36.10
2022-07-31T19:11:52.809Z,36.10
2022-07-31T19:12:50.414Z,36.40
2022-07-31T19:13:46.365Z,36.99
2022-07-31T19:14:46.325Z,37.09
2022-07-31T19:15:46.387Z,36.50
2022-07-31T19:16:52.487Z,36.91
2022-07-31T19:17:46.191Z,36.51
2022-07-31T19:18:47.618Z,36.91
2022-07-31T19:19:54.784Z,37.21
2022-07-31T19:21:00.390Z,37.41
2022-07-31T19:21:53.733Z,37.11
2022-07-31T19:22:46.142Z,36.81
2022-07-31T19:23:46.151Z,36.71
2022-07-31T19:24:46.149Z,37.51
2022-07-31T19:25:59.646Z,37.30
2022-07-31T19:26:53.836Z,37.11
2022-07-31T19:27:50.275Z,37.11
2022-07-31T19:28:47.004Z,36.91
2022-07-31T19:29:46.070Z,37.21
2022-07-31T19:30:46.076Z,37.51
2022-07-31T19:31:52.308Z,37.30
2022-07-31T19:32:46.078Z,37.41
2022-07-31T19:33:46.039Z,38.00
2022-07-31T19:34:47.826Z,38.50
2022-07-31T19:35:54.015Z,38.30
2022-07-31T19:36:47.460Z,37.90
2022-07-31T19:37:52.416Z,38.00
2022-07-31T19:38:45.965Z,38.20
2022-07-31T19:39:45.950Z,38.10
2022-07-31T19:40:45.979Z,38.20
2022-07-31T19:42:10.813Z,38.40
2022-07-31T19:42:47.409Z,38.20
2022-07-31T19:43:52.375Z,38.62
2022-07-31T19:44:45.881Z,38.92
2022-07-31T19:46:00.573Z,39.11
2022-07-31T19:46:46.830Z,38.81
2022-07-31T19:47:45.828Z,38.71
2022-07-31T19:48:52.209Z,38.92
2022-07-31T19:49:45.897Z,38.81
2022-07-31T19:50:45.761Z,39.11
2022-07-31T19:51:45.748Z,38.81
2022-07-31T19:52:45.803Z,38.92
2022-07-31T19:53:46.077Z,39.31
2022-07-31T19:54:52.042Z,39.71
2022-07-31T19:55:46.660Z,40.80
2022-07-31T19:56:46.056Z,40.12
2022-07-31T19:57:45.714Z,40.52
2022-07-31T19:58:45.957Z,40.42
2022-07-31T19:59:45.658Z,41.02
2022-07-31T20:00:51.950Z,41.12
2022-07-31T20:01:46.882Z,41.02
2022-07-31T20:02:45.647Z,41.52
2022-07-31T20:03:45.672Z,40.92
2022-07-31T20:04:45.691Z,41.12
2022-07-31T20:05:51.889Z,40.72
2022-07-31T20:06:45.583Z,40.42
2022-07-31T20:07:45.563Z,40.42
2022-07-31T20:08:45.576Z,40.33
2022-07-31T20:09:46.251Z,40.52
2022-07-31T20:10:51.860Z,40.42
2022-07-31T20:11:46.761Z,40.33
2022-07-31T20:12:45.531Z,40.34
2022-07-31T20:13:45.522Z,41.14
2022-07-31T20:14:45.552Z,41.44
2022-07-31T20:15:52.578Z,41.53
2022-07-31T20:16:53.705Z,41.63
2022-07-31T20:17:45.457Z,41.74
2022-07-31T20:18:45.491Z,41.74
2022-07-31T20:20:14.763Z,41.83
2022-07-31T20:20:46.443Z,42.05
2022-07-31T20:21:51.743Z,42.15
2022-07-31T20:22:45.361Z,42.25
2022-07-31T20:23:45.403Z,42.65
2022-07-31T20:24:45.494Z,42.65
2022-07-31T20:25:45.379Z,43.35
2022-07-31T20:26:45.384Z,43.44
2022-07-31T20:27:51.634Z,43.24
2022-07-31T20:28:46.565Z,43.54
2022-07-31T20:29:45.353Z,43.64
2022-07-31T20:30:45.380Z,43.74
2022-07-31T20:31:45.271Z,43.54
2022-07-31T20:32:48.747Z,43.64
2022-07-31T20:33:57.546Z,43.64
2022-07-31T20:34:46.727Z,43.05
2022-07-31T20:35:47.507Z,43.15
2022-07-31T20:36:46.144Z,42.45
2022-07-31T20:37:45.168Z,42.25
2022-07-31T20:38:45.455Z,42.45
2022-07-31T20:39:51.444Z,42.37
2022-07-31T20:40:48.204Z,42.37
2022-07-31T20:41:47.236Z,42.47
2022-07-31T20:42:45.106Z,42.77
2022-07-31T20:43:45.122Z,42.97
2022-07-31T20:44:51.445Z,43.46
2022-07-31T20:45:45.108Z,43.27
2022-07-31T20:46:45.092Z,43.27
2022-07-31T20:47:45.077Z,43.46
2022-07-31T20:48:45.075Z,43.86
2022-07-31T20:49:45.085Z,44.26
2022-07-31T20:50:51.289Z,43.86
2022-07-31T20:51:45.027Z,44.06
2022-07-31T20:52:48.515Z,44.26
2022-07-31T20:53:45.044Z,44.26
2022-07-31T20:54:45.051Z,44.56
2022-07-31T20:55:45.008Z,44.66
2022-07-31T20:56:51.290Z,44.76
2022-07-31T20:57:44.978Z,44.76
2022-07-31T20:58:51.164Z,44.56
2022-07-31T20:59:46.419Z,44.66
2022-07-31T21:00:45.882Z,44.78
2022-07-31T21:01:44.945Z,44.58
2022-07-31T21:02:51.149Z,44.58
2022-07-31T21:03:44.989Z,44.58
2022-07-31T21:04:45.854Z,45.28
2022-07-31T21:05:44.924Z,46.17
2022-07-31T21:06:46.155Z,45.87
2022-07-31T21:07:51.094Z,45.67
2022-07-31T21:08:44.850Z,45.57
2022-07-31T21:09:44.830Z,45.57
2022-07-31T21:10:44.785Z,45.87
2022-07-31T21:11:44.793Z,46.37
2022-07-31T21:12:51.026Z,46.87
2022-07-31T21:13:44.746Z,46.87
2022-07-31T21:14:44.758Z,47.07
2022-07-31T21:15:45.438Z,47.17
2022-07-31T21:16:44.767Z,47.27
2022-07-31T21:17:44.718Z,47.27
2022-07-31T21:18:50.988Z,47.29
2022-07-31T21:19:44.685Z,47.19
2022-07-31T21:20:51.740Z,46.00
2022-07-31T21:21:46.278Z,45.50
2022-07-31T21:22:44.724Z,45.79
2022-07-31T21:23:44.679Z,46.20
2022-07-31T21:24:50.874Z,46.30
2022-07-31T21:25:44.656Z,46.49
2022-07-31T21:26:44.585Z,46.39
2022-07-31T21:27:44.658Z,46.69
2022-07-31T21:28:44.633Z,46.79
2022-07-31T21:29:55.135Z,46.59
2022-07-31T21:30:44.545Z,46.39
2022-07-31T21:31:48.770Z,46.99
2022-07-31T21:32:46.079Z,47.79
2022-07-31T21:33:44.586Z,47.69
2022-07-31T21:34:44.916Z,47.89
2022-07-31T21:35:51.019Z,47.19
2022-07-31T21:36:44.554Z,47.19
2022-07-31T21:37:44.458Z,47.29
2022-07-31T21:38:44.437Z,47.59
2022-07-31T21:39:44.736Z,47.49
2022-07-31T21:40:50.676Z,46.30
2022-07-31T21:41:44.390Z,46.09
2022-07-31T21:42:45.379Z,46.20
2022-07-31T21:43:58.355Z,46.69
2022-07-31T21:44:45.873Z,47.19
2022-07-31T21:45:57.596Z,49.28
2022-07-31T21:46:51.599Z,53.36
2022-07-31T21:47:52.908Z,56.55
2022-07-31T21:48:45.882Z,57.54
2022-07-31T21:49:44.525Z,61.53
2022-07-31T21:50:50.644Z,66.53
2022-07-31T21:51:44.269Z,54.58
2022-07-31T21:52:44.301Z,55.91
2022-07-31T21:53:44.279Z,62.61
2022-07-31T21:54:44.279Z,62.84
2022-07-31T21:55:44.220Z,59.95
2022-07-31T21:56:50.499Z,58.68
2022-07-31T21:57:59.082Z,63.67
2022-07-31T21:58:45.704Z,64.50
2022-07-31T21:59:44.197Z,63.80
2022-07-31T22:00:44.456Z,61.41
2022-07-31T22:01:57.885Z,61.24
2022-07-31T22:02:45.652Z,66.53
2022-07-31T22:03:44.186Z,61.93
2022-07-31T22:04:44.135Z,62.83
2022-07-31T22:05:44.128Z,65.53
2022-07-31T22:06:50.398Z,66.33
2022-07-31T22:07:44.073Z,68.03
2022-07-31T22:08:44.130Z,63.73
2022-07-31T22:09:44.071Z,63.33
2022-07-31T22:10:44.036Z,63.43
2022-07-31T22:12:01.351Z,64.20
2022-07-31T22:12:45.590Z,65.10
2022-07-31T22:13:43.993Z,64.60
2022-07-31T22:14:44.082Z,63.00
2022-07-31T22:15:55.363Z,61.90